Main page
METAR-TAF:

METAR-TAF

Airports :

Warton Aerodrome

Preston, England

latitude: 53-44-42N, longitude: 2-53-02W, elevation: 17 m

Current weather observation

The report was made 4 hours and 7 minutes ago, at 18:50 UTC
Wind 5 kt from the Northeast, varying between North and East
Temperature 6°C
Humidity 81%
Pressure 1023 hPa
Visibility 10 km or more
Scattered clouds at a height of 2200 ft

METAR: EGNO 191850Z 04005KT 010V080 9999 SCT022 06/03 Q1023

Time: 22:57 (22:57 UTC)

Forecast

The report was made 8 hours and 56 minutes ago, at 14:01 UTC
Forecast valid from 19 at 15 UTC to 19 at 19 UTC
Wind 10 kt from the East/Northeast
Visibility 10 km or more
Scattered clouds at a height of 4000 ft
Probability 30% :
Temporary
from 19 at 15 UTC to 19 at 19 UTC
Wind 15 kt from the East with gusts up to 25 kt
Visibility: 7000 m
rain showers

TAF: EGNO 191401Z 1915/1919 07010KT 9999 SCT040 PROB30 TEMPO 1915/1919 08015G25KT 7000 SHRA

Weather observations and forecasts of more than 4000 airports (METAR and TAF reports).

The available stations are represented by yellow and red dots on the map.

Hover mouse over dot to see the name of the station.

Then click to see weather observations and forecasts.

To change the map : click on the green buttons with a black cross to zoom in, on the green button with a dash to zoom out, or on the green arrows for adjacent maps.


METAR-TAF: